Time;durP1;ratioP1;P1;durP2;ratioP2;P2;SDS_P1;SDS_P2;PMS_P1;PMS_P2;Temp;Humidity;BMP_temperature;BMP_pressure;BME280_temperature;BME280_humidity;BME280_pressure;Samples;Min_cycle;Max_cycle;Signal;HPM_P1;HPM_P2
2022/03/19 00:01:25;;;;;;;7.20;3.37;;;;;;;15.57;47.41;100875.03;5027603;28;20045;-72
2022/03/19 00:03:53;;;;;;;4.80;2.07;;;;;;;15.32;47.69;100848.16;5020552;28;20125;-69
2022/03/19 00:06:22;;;;;;;1.40;1.20;;;;;;;15.66;47.14;100875.22;5027653;28;20046;-71
2022/03/19 00:08:54;;;;;;;4.87;2.40;;;;;;;15.67;47.21;100882.53;5025780;28;20076;-72
2022/03/19 00:11:23;;;;;;;5.43;1.67;;;;;;;15.33;47.23;100818.88;5029602;28;20086;-68
2022/03/19 00:13:50;;;;;;;3.83;2.00;;;;;;;15.69;47.33;100857.72;5025872;28;20565;-68
2022/03/19 00:16:17;;;;;;;6.97;2.50;;;;;;;15.70;47.31;100876.28;5023423;28;20183;-68
2022/03/19 00:18:44;;;;;;;3.30;1.40;;;;;;;15.37;47.26;100816.28;5026818;28;20053;-69
2022/03/19 00:21:11;;;;;;;1.87;1.60;;;;;;;15.64;47.37;100860.56;5034453;28;20555;-70
2022/03/19 00:23:37;;;;;;;6.73;1.83;;;;;;;15.73;47.37;100874.84;5030368;28;20141;-71
2022/03/19 00:26:06;;;;;;;3.77;1.77;;;;;;;15.50;47.54;100837.19;5028550;28;20140;-69
2022/03/19 00:28:32;;;;;;;16.30;3.03;;;;;;;15.59;47.31;100850.25;5036572;28;20371;-69
2022/03/19 00:30:59;;;;;;;4.83;1.70;;;;;;;15.64;47.55;100869.84;5033607;28;20045;-69
2022/03/19 00:33:26;;;;;;;6.90;2.57;;;;;;;15.66;47.35;100872.41;5034820;28;20049;-70
2022/03/19 00:35:53;;;;;;;9.80;2.10;;;;;;;15.72;47.46;100873.97;5020507;28;20057;-70
2022/03/19 00:38:20;;;;;;;6.97;2.33;;;;;;;15.69;47.58;100874.63;5033731;28;20132;-71
2022/03/19 00:40:49;;;;;;;3.37;1.43;;;;;;;15.64;47.41;100860.56;5033840;28;20132;-71
2022/03/19 00:43:16;;;;;;;7.37;1.37;;;;;;;15.51;48.18;100855.72;5030224;28;20120;-71
2022/03/19 00:45:43;;;;;;;6.90;1.63;;;;;;;15.50;48.01;100862.50;5024108;28;20148;-70
2022/03/19 00:48:10;;;;;;;2.60;0.93;;;;;;;15.09;48.28;100809.69;5030967;28;20144;-70
2022/03/19 00:50:37;;;;;;;8.20;2.37;;;;;;;15.40;48.55;100855.88;5034822;28;20564;-70
2022/03/19 00:53:04;;;;;;;3.53;1.63;;;;;;;15.32;48.42;100841.69;5029372;28;20080;-69
2022/03/19 00:55:31;;;;;;;5.60;1.60;;;;;;;15.43;48.36;100853.63;5026793;28;20467;-69
2022/03/19 00:57:58;;;;;;;4.83;1.10;;;;;;;15.37;48.48;100850.88;5029540;28;20073;-70
2022/03/19 01:00:26;;;;;;;6.97;1.87;;;;;;;15.41;48.66;100874.44;5033101;28;20069;-69
2022/03/19 01:02:55;;;;;;;6.60;1.37;;;;;;;15.38;48.75;100858.19;5033716;28;20053;-70
2022/03/19 01:05:23;;;;;;;6.40;2.30;;;;;;;15.40;48.69;100861.53;5023682;28;20057;-69
2022/03/19 01:07:54;;;;;;;4.10;1.40;;;;;;;15.44;48.74;100860.91;5028357;28;20057;-70
2022/03/19 01:10:24;;;;;;;;;;;;;;;15.32;48.95;100859.41;5024126;28;20136;-71
2022/03/19 01:12:53;;;;;;;5.80;1.50;;;;;;;14.97;48.88;100798.03;5027376;28;19927;-71
2022/03/19 01:15:21;;;;;;;2.23;0.83;;;;;;;15.22;49.15;100853.09;5027026;28;20448;-70
2022/03/19 01:17:48;;;;;;;6.27;3.00;;;;;;;15.33;48.95;100861.06;5030961;28;20480;-70
2022/03/19 01:20:16;;;;;;;5.37;1.90;;;;;;;15.21;48.99;100846.63;5023126;28;20068;-69
2022/03/19 01:22:45;;;;;;;13.70;2.13;;;;;;;15.26;49.13;100857.81;5024916;28;20068;-69
2022/03/19 01:25:14;;;;;;;3.07;1.87;;;;;;;15.03;49.33;100828.59;5031765;28;20504;-70
2022/03/19 01:27:42;;;;;;;1.50;1.20;;;;;;;15.22;49.31;100861.53;5027250;28;20136;-70
2022/03/19 01:30:14;;;;;;;8.87;2.63;;;;;;;15.04;49.42;100830.31;5026512;28;20148;-71
2022/03/19 01:32:41;;;;;;;1.23;0.80;;;;;;;15.09;49.51;100846.25;5029527;28;20161;-71
2022/03/19 01:35:10;;;;;;;10.10;2.30;;;;;;;15.13;49.58;100841.69;5021875;28;20136;-71
2022/03/19 01:37:38;;;;;;;8.60;2.13;;;;;;;15.14;49.44;100829.28;5024878;28;20049;-71
2022/03/19 01:40:08;;;;;;;4.47;1.23;;;;;;;15.23;49.63;100849.97;5026885;28;20493;-71
2022/03/19 01:42:37;;;;;;;3.50;1.73;;;;;;;15.22;49.47;100842.69;5029161;28;20525;-71
2022/03/19 01:45:08;;;;;;;2.92;1.75;;;;;;;15.18;49.52;100838.81;5029047;28;20179;-70
2022/03/19 01:47:35;;;;;;;2.50;1.53;;;;;;;15.09;49.88;100843.44;5026339;28;20059;-69
2022/03/19 01:50:03;;;;;;;3.90;1.90;;;;;;;14.97;49.99;100823.34;5028650;28;20460;-69
2022/03/19 01:52:31;;;;;;;3.70;1.27;;;;;;;14.73;50.08;100789.69;5032425;28;20500;-69
2022/03/19 01:54:59;;;;;;;2.83;2.07;;;;;;;14.95;50.21;100820.88;5032769;28;20045;-68
2022/03/19 01:57:30;;;;;;;1.97;1.43;;;;;;;15.02;50.12;100831.72;5047589;28;20049;-70
2022/03/19 01:59:58;;;;;;;2.00;1.30;;;;;;;14.97;50.82;100848.66;5031247;28;20557;-70
2022/03/19 02:02:26;;;;;;;2.37;1.50;;;;;;;14.66;50.50;100801.28;5038061;28;20148;-70
2022/03/19 02:04:54;;;;;;;4.50;1.90;;;;;;;14.83;50.70;100823.28;5030145;28;20111;-70
2022/03/19 02:07:21;;;;;;;2.57;1.40;;;;;;;14.88;50.55;100817.59;5037962;28;20045;-70
2022/03/19 02:09:48;;;;;;;1.40;1.10;;;;;;;14.75;50.81;100805.13;5049333;28;20139;-70
2022/03/19 02:12:15;;;;;;;2.73;0.80;;;;;;;14.79;50.83;100811.78;5049649;28;20076;-70
2022/03/19 02:14:44;;;;;;;4.37;0.93;;;;;;;14.72;50.80;100788.00;5040569;28;20073;-70
2022/03/19 02:17:11;;;;;;;2.77;1.07;;;;;;;14.77;50.81;100802.84;5032264;28;20049;-70
2022/03/19 02:19:53;;;;;;;4.10;2.47;;;;;;;14.84;50.95;100814.56;5026213;28;20046;-70
2022/03/19 02:22:21;;;;;;;1.73;1.03;;;;;;;14.80;50.92;100809.81;5017988;28;20527;-70
2022/03/19 02:27:36;;;;;;;8.07;2.37;;;;;;;14.76;51.07;100800.31;5031941;28;20145;-73
2022/03/19 02:30:05;;;;;;;1.90;1.47;;;;;;;14.68;51.15;100797.06;5027508;28;20527;-67
2022/03/19 02:32:33;;;;;;;2.03;1.58;;;;;;;14.49;51.29;100755.97;5020991;28;20073;-68
2022/03/19 02:35:02;;;;;;;3.20;2.03;;;;;;;14.78;51.19;100798.06;5024283;28;20137;-68
2022/03/19 02:37:56;;;;;;;0.83;0.50;;;;;;;14.71;51.32;100798.44;5026359;28;20112;-68
2022/03/19 02:40:23;;;;;;;1.67;1.33;;;;;;;14.66;51.36;100793.69;5028018;28;20045;-67
2022/03/19 02:42:52;;;;;;;5.37;1.23;;;;;;;14.53;51.31;100768.31;5020762;28;20421;-68
2022/03/19 02:45:21;;;;;;;4.47;1.13;;;;;;;14.79;51.39;100794.94;5029533;28;20584;-68
2022/03/19 02:47:58;;;;;;;4.82;1.65;;;;;;;14.59;51.43;100779.19;5029403;28;20060;-67
2022/03/19 02:50:35;;;;;;;8.57;1.87;;;;;;;14.57;51.46;100780.66;5031054;28;20045;-69
2022/03/19 02:53:07;;;;;;;6.50;1.87;;;;;;;14.69;51.42;100789.44;5027601;28;20479;-69
2022/03/19 02:55:37;;;;;;;3.50;1.53;;;;;;;14.27;51.64;100740.53;5030351;28;20495;-69
2022/03/19 02:58:05;;;;;;;;;;;;;;;14.39;52.44;100794.31;5026299;28;20046;-69
2022/03/19 03:00:33;;;;;;;7.50;2.93;;;;;;;14.50;52.18;100800.69;5030974;28;19921;-68
2022/03/19 03:03:00;;;;;;;4.20;1.23;;;;;;;14.45;51.83;100775.41;5031731;28;20053;-66
2022/03/19 03:05:28;;;;;;;4.50;1.50;;;;;;;14.34;52.25;100771.06;5026414;28;20045;-67
2022/03/19 03:07:55;;;;;;;5.23;0.97;;;;;;;14.34;52.21;100757.84;5033173;28;20084;-68
2022/03/19 03:10:22;;;;;;;7.53;1.50;;;;;;;14.30;52.13;100753.97;5027360;28;20140;-68
2022/03/19 03:12:49;;;;;;;1.60;1.40;;;;;;;14.50;52.09;100780.16;5028496;28;20060;-69
2022/03/19 03:15:16;;;;;;;1.70;0.80;;;;;;;14.55;51.91;100782.91;5024322;28;20148;-67
2022/03/19 03:17:43;;;;;;;3.10;1.80;;;;;;;14.63;51.88;100785.03;5015768;28;20077;-67
2022/03/19 03:20:10;;;;;;;6.43;2.20;;;;;;;14.59;51.77;100783.97;5039961;28;20465;-67
2022/03/19 03:22:39;;;;;;;2.57;1.87;;;;;;;14.46;52.03;100769.50;5028121;28;20100;-67
2022/03/19 03:25:06;;;;;;;5.90;1.37;;;;;;;14.45;51.86;100762.19;5029732;28;20076;-66
2022/03/19 03:27:34;;;;;;;4.53;1.23;;;;;;;14.44;52.02;100782.19;5028246;28;20140;-67
2022/03/19 03:30:00;;;;;;;2.90;1.83;;;;;;;14.53;52.07;100791.66;5029062;28;20504;-67
2022/03/19 03:32:28;;;;;;;2.20;1.23;;;;;;;14.54;52.13;100784.06;5029510;28;20133;-67
2022/03/19 03:34:55;;;;;;;8.30;2.00;;;;;;;14.56;51.93;100778.94;5024955;28;20477;-67
2022/03/19 03:37:22;;;;;;;3.37;1.07;;;;;;;14.46;52.06;100766.69;5024295;28;20471;-67
2022/03/19 03:39:48;;;;;;;6.03;1.43;;;;;;;14.46;51.85;100760.22;5031855;28;20447;-68
2022/03/19 03:42:16;;;;;;;3.50;1.70;;;;;;;14.67;51.50;100786.97;5020903;28;20096;-67
2022/03/19 03:44:42;;;;;;;2.80;1.60;;;;;;;14.59;51.64;100770.75;5027797;28;20092;-68
2022/03/19 03:47:09;;;;;;;4.47;1.67;;;;;;;14.64;51.50;100781.94;5029393;28;20208;-67
2022/03/19 03:49:37;;;;;;;6.03;2.93;;;;;;;14.65;51.58;100788.38;5031375;28;20059;-67
2022/03/19 03:52:04;;;;;;;4.50;2.47;;;;;;;14.41;51.74;100741.47;5030690;28;20164;-66
2022/03/19 03:54:31;;;;;;;4.30;1.70;;;;;;;14.30;51.58;100722.25;5025012;28;20051;-66
2022/03/19 03:56:58;;;;;;;7.03;2.30;;;;;;;14.68;51.43;100779.34;5028344;28;20080;-67
2022/03/19 03:59:25;;;;;;;3.20;2.10;;;;;;;14.55;51.46;100764.06;5023676;28;20148;-67
2022/03/19 04:01:52;;;;;;;6.27;1.87;;;;;;;14.54;51.45;100758.75;5024974;28;20145;-66
2022/03/19 04:04:19;;;;;;;2.10;1.40;;;;;;;14.65;51.67;100786.41;5026054;28;20050;-67
2022/03/19 04:06:46;;;;;;;9.53;2.23;;;;;;;14.57;51.80;100787.09;5029311;28;20133;-67
2022/03/19 04:09:13;;;;;;;7.57;2.23;;;;;;;14.56;51.67;100784.56;5025349;28;20523;-67
2022/03/19 04:11:40;;;;;;;7.93;2.17;;;;;;;14.44;51.69;100766.16;5042906;28;20128;-66
2022/03/19 04:14:07;;;;;;;5.07;2.20;;;;;;;14.53;51.71;100787.97;5023704;28;20137;-66
2022/03/19 04:16:37;;;;;;;5.00;1.70;;;;;;;14.49;51.80;100778.44;5023279;28;20067;-66
2022/03/19 04:19:04;;;;;;;5.72;1.75;;;;;;;14.50;52.06;100797.00;5028796;28;20132;-66
2022/03/19 04:21:30;;;;;;;1.73;0.90;;;;;;;14.25;52.11;100767.25;5016066;28;20488;-66
2022/03/19 04:23:57;;;;;;;5.10;1.90;;;;;;;14.29;52.44;100791.66;5031358;28;20085;-66
2022/03/19 04:26:24;;;;;;;7.73;2.33;;;;;;;14.21;52.68;100769.81;5014314;28;20053;-65
2022/03/19 04:28:51;;;;;;;7.10;1.47;;;;;;;14.19;52.60;100781.38;5023058;28;20081;-67
2022/03/19 04:31:18;;;;;;;2.00;1.07;;;;;;;13.93;52.65;100746.28;5026151;28;20081;-67
2022/03/19 04:33:45;;;;;;;5.93;1.60;;;;;;;14.12;53.06;100780.03;5027349;28;20056;-68
2022/03/19 04:36:30;;;;;;;5.43;1.93;;;;;;;13.61;53.00;100719.69;5039083;28;20055;-67
2022/03/19 04:38:58;;;;;;;4.07;1.80;;;;;;;14.09;53.16;100791.88;5024066;28;20053;-67
2022/03/19 04:41:26;;;;;;;11.57;2.13;;;;;;;14.07;53.22;100788.53;5027240;28;20080;-67
2022/03/19 04:43:53;;;;;;;13.63;2.07;;;;;;;13.92;53.20;100770.72;5035528;28;20578;-67
2022/03/19 04:46:20;;;;;;;6.00;1.50;;;;;;;13.87;53.24;100770.75;5025360;28;20449;-66
2022/03/19 04:48:46;;;;;;;5.43;1.60;;;;;;;13.96;53.21;100788.63;5026353;28;20061;-67
2022/03/19 04:51:16;;;;;;;5.17;2.23;;;;;;;13.99;53.42;100790.84;5022287;28;20045;-67
2022/03/19 04:53:50;;;;;;;5.85;1.70;;;;;;;13.96;53.51;100788.63;5026093;28;20319;-68
2022/03/19 04:56:18;;;;;;;9.47;2.23;;;;;;;13.98;53.57;100792.00;5026847;28;20591;-67
2022/03/19 04:58:46;;;;;;;2.70;1.63;;;;;;;13.89;53.52;100765.69;5023817;28;20146;-65
2022/03/19 05:01:13;;;;;;;1.97;1.43;;;;;;;14.03;53.37;100785.47;5021318;28;20441;-65
2022/03/19 05:03:40;;;;;;;11.67;1.90;;;;;;;14.10;53.25;100790.75;5027004;28;20054;-67
2022/03/19 05:06:08;;;;;;;3.67;0.87;;;;;;;14.05;53.38;100783.22;5033795;28;20128;-67
2022/03/19 05:08:34;;;;;;;5.53;1.27;;;;;;;14.09;53.17;100784.28;5043174;28;20140;-67
2022/03/19 05:11:13;;;;;;;1.70;1.10;;;;;;;14.09;53.29;100784.28;5020413;28;20088;-67
2022/03/19 05:13:45;;;;;;;10.20;2.40;;;;;;;14.07;53.25;100783.75;5029874;28;20527;-68
2022/03/19 05:16:12;;;;;;;3.23;1.27;;;;;;;14.07;53.03;100778.13;5031714;28;20148;-68
2022/03/19 05:18:39;;;;;;;10.43;1.73;;;;;;;14.05;53.01;100771.13;5028458;28;20045;-67
2022/03/19 05:21:06;;;;;;;6.87;1.80;;;;;;;14.11;52.80;100767.13;5020525;28;20042;-68
2022/03/19 05:23:34;;;;;;;6.13;2.40;;;;;;;14.23;52.75;100779.63;5031877;28;20152;-68
2022/03/19 05:26:01;;;;;;;8.83;3.00;;;;;;;14.25;52.48;100786.91;5034304;28;20433;-67
2022/03/19 05:28:28;;;;;;;4.37;2.20;;;;;;;14.15;52.64;100773.81;5032514;28;20077;-67
2022/03/19 05:30:57;;;;;;;6.87;1.60;;;;;;;14.12;52.70;100771.59;5022660;28;20092;-67
2022/03/19 05:36:11;;;;;;;4.77;1.93;;;;;;;14.10;52.97;100773.91;5020948;28;20057;-67
2022/03/19 05:38:39;;;;;;;3.50;1.87;;;;;;;14.06;52.78;100764.41;5030761;28;20050;-67
2022/03/19 05:41:06;;;;;;;8.30;2.00;;;;;;;14.20;52.72;100790.63;5032914;28;20084;-67
2022/03/19 05:43:34;;;;;;;7.63;2.27;;;;;;;14.01;52.68;100761.63;5023481;28;20149;-67
2022/03/19 05:46:00;;;;;;;7.03;2.00;;;;;;;14.07;52.76;100772.50;5027962;28;20132;-66
2022/03/19 05:48:28;;;;;;;6.07;2.07;;;;;;;13.94;52.90;100762.81;5026620;28;20045;-67
2022/03/19 05:50:55;;;;;;;3.17;1.47;;;;;;;13.98;52.58;100779.91;5032692;28;20132;-67
2022/03/19 05:53:26;;;;;;;5.30;2.00;;;;;;;13.94;53.04;100785.28;5025346;28;20045;-67
2022/03/19 05:55:54;;;;;;;5.30;2.47;;;;;;;14.02;53.00;100789.44;5029578;28;20147;-66
2022/03/19 05:58:20;;;;;;;4.73;1.50;;;;;;;13.94;52.96;100784.44;5030608;28;20080;-66
2022/03/19 06:00:47;;;;;;;8.27;2.57;;;;;;;13.72;52.72;100749.31;5029832;28;20529;-67
2022/03/19 06:03:14;;;;;;;8.53;1.97;;;;;;;13.93;52.93;100791.22;5031519;28;20050;-68
2022/03/19 06:05:41;;;;;;;5.77;2.40;;;;;;;13.91;52.77;100780.28;5032907;28;20128;-68
2022/03/19 06:08:08;;;;;;;8.20;2.60;;;;;;;13.90;52.06;100756.13;5031429;28;20072;-68
2022/03/19 06:10:36;;;;;;;8.80;2.80;;;;;;;14.22;51.92;100785.53;5025496;28;20127;-66
2022/03/19 06:13:03;;;;;;;10.70;2.80;;;;;;;14.46;51.72;100819.22;5029181;28;20050;-67
2022/03/19 06:15:30;;;;;;;8.17;2.53;;;;;;;14.40;51.47;100812.03;5030308;28;20137;-67
2022/03/19 06:17:57;;;;;;;5.57;2.40;;;;;;;14.46;51.70;100820.09;5025347;28;20156;-66
2022/03/19 06:20:24;;;;;;;3.90;2.40;;;;;;;14.28;51.73;100804.00;5029139;28;20488;-67
2022/03/19 06:22:50;;;;;;;4.53;2.30;;;;;;;14.40;51.59;100824.09;5028467;28;20141;-68
2022/03/19 06:25:17;;;;;;;3.80;2.10;;;;;;;14.06;52.07;100795.28;5023291;28;20133;-67
2022/03/19 06:27:44;;;;;;;3.67;1.70;;;;;;;14.10;52.36;100818.81;5030229;28;20042;-67
2022/03/19 06:30:11;;;;;;;8.57;2.70;;;;;;;13.68;52.62;100758.66;5028363;28;20064;-67
2022/03/19 06:32:41;;;;;;;3.73;2.37;;;;;;;13.92;52.85;100820.44;5029650;28;20132;-67
2022/03/19 06:35:10;;;;;;;2.42;1.02;;;;;;;13.66;53.11;100798.22;5028879;28;20053;-67
2022/03/19 06:37:37;;;;;;;5.90;1.90;;;;;;;13.72;53.37;100816.69;5019940;28;20049;-67
2022/03/19 06:40:07;;;;;;;8.47;2.50;;;;;;;13.56;53.24;100784.28;5029482;28;20123;-67
2022/03/19 06:42:34;;;;;;;;;;;;;;;13.67;53.52;100824.31;5051815;28;20077;-66
2022/03/19 06:45:01;;;;;;;6.73;1.90;;;;;;;13.73;53.31;100820.31;5034798;28;19956;-67
2022/03/19 06:47:28;;;;;;;4.93;2.40;;;;;;;13.69;53.38;100824.84;5025236;28;20245;-67
2022/03/19 06:49:55;;;;;;;8.33;2.33;;;;;;;13.66;53.46;100814.22;5022007;28;20050;-66
2022/03/19 06:52:24;;;;;;;9.23;3.07;;;;;;;13.74;53.26;100824.78;5027748;28;20540;-67
2022/03/19 06:54:51;;;;;;;6.93;2.47;;;;;;;13.71;53.50;100828.22;5025854;28;20072;-67
2022/03/19 06:57:18;;;;;;;3.83;2.10;;;;;;;13.63;53.62;100812.81;5027036;28;20049;-67
2022/03/19 06:59:44;;;;;;;5.67;2.00;;;;;;;13.57;53.65;100818.78;5030077;28;20076;-66
2022/03/19 07:02:11;;;;;;;5.30;1.90;;;;;;;13.63;53.81;100820.41;5021566;28;20073;-67
2022/03/19 07:04:38;;;;;;;5.40;2.20;;;;;;;13.49;53.71;100795.00;5024428;28;20103;-67
2022/03/19 07:07:05;;;;;;;2.30;1.07;;;;;;;13.68;53.58;100826.00;5025301;28;20137;-67
2022/03/19 07:09:32;;;;;;;5.73;1.57;;;;;;;13.60;53.51;100807.81;5030627;28;20063;-67
2022/03/19 07:11:59;;;;;;;5.20;3.00;;;;;;;13.66;53.37;100809.44;5026699;28;20077;-67
2022/03/19 07:14:25;;;;;;;4.60;1.50;;;;;;;13.80;53.32;100811.56;5028257;28;20140;-67
2022/03/19 07:16:54;;;;;;;3.23;1.90;;;;;;;13.85;53.19;100803.09;5035826;28;20056;-67
2022/03/19 07:19:21;;;;;;;3.93;1.63;;;;;;;14.06;53.27;100826.19;5022427;28;20075;-68
2022/03/19 07:21:48;;;;;;;2.97;1.53;;;;;;;14.12;52.83;100822.16;5021231;28;20124;-66
2022/03/19 07:24:15;;;;;;;15.77;2.30;;;;;;;13.87;52.76;100767.97;5022572;28;20144;-66
2022/03/19 07:26:41;;;;;;;4.57;1.77;;;;;;;14.22;52.16;100802.38;5028078;28;20053;-65
2022/03/19 07:29:08;;;;;;;7.60;2.37;;;;;;;14.34;52.01;100800.00;5025583;28;20041;-66
2022/03/19 07:31:35;;;;;;;6.73;3.53;;;;;;;14.44;51.79;100797.06;5033480;28;20132;-67
2022/03/19 07:34:02;;;;;;;6.37;1.67;;;;;;;14.69;51.21;100806.31;5022924;28;20052;-67
2022/03/19 07:36:31;;;;;;;9.90;2.43;;;;;;;15.01;50.50;100819.66;5025319;28;20136;-65
2022/03/19 07:38:57;;;;;;;4.70;2.03;;;;;;;15.17;50.13;100817.44;5024725;28;20106;-66
2022/03/19 07:44:10;;;;;;;1.80;1.33;;;;;;;15.43;49.69;100831.09;5029871;28;20132;-66
2022/03/19 07:46:37;;;;;;;3.53;1.50;;;;;;;15.53;49.10;100808.41;5025169;28;20136;-66
2022/03/19 07:49:04;;;;;;;3.87;2.00;;;;;;;15.81;48.41;100810.19;5020351;28;20077;-67
2022/03/19 07:51:31;;;;;;;4.70;2.23;;;;;;;16.03;47.97;100817.97;5021049;28;20050;-66
2022/03/19 07:53:58;;;;;;;6.17;2.33;;;;;;;16.34;47.88;100829.47;5029390;28;20055;-67
2022/03/19 07:56:25;;;;;;;10.23;1.57;;;;;;;16.45;47.32;100823.63;5027848;28;20132;-67
2022/03/19 07:58:52;;;;;;;1.40;0.93;;;;;;;16.59;46.93;100835.72;5025386;28;20140;-66
2022/03/19 08:01:20;;;;;;;2.05;1.60;;;;;;;16.70;46.50;100831.53;5028699;28;20045;-65
2022/03/19 08:03:48;;;;;;;5.20;1.50;;;;;;;16.90;46.20;100835.09;5025671;28;20046;-66
2022/03/19 08:06:15;;;;;;;1.33;1.15;;;;;;;17.07;45.99;100840.91;5025763;28;20183;-66
2022/03/19 08:08:42;;;;;;;3.72;2.00;;;;;;;16.81;45.58;100790.69;5045948;28;20107;-65
2022/03/19 08:11:09;;;;;;;4.07;1.85;;;;;;;17.12;45.22;100794.78;5028412;28;20058;-67
2022/03/19 08:13:37;;;;;;;3.63;2.33;;;;;;;17.33;44.85;100826.16;5029068;28;20073;-65
2022/03/19 08:16:04;;;;;;;3.08;1.42;;;;;;;17.26;45.08;100815.31;5032054;28;20081;-66
2022/03/19 08:18:32;;;;;;;3.65;2.00;;;;;;;17.45;44.76;100826.44;5029376;28;20054;-66
2022/03/19 08:20:59;;;;;;;4.13;1.88;;;;;;;17.60;43.98;100814.75;5027889;28;20136;-66
2022/03/19 08:23:26;;;;;;;1.85;1.50;;;;;;;17.93;43.53;100834.28;5030192;28;20045;-67
2022/03/19 08:25:52;;;;;;;8.68;2.10;;;;;;;18.05;43.45;100830.84;5023913;28;20140;-67
2022/03/19 08:28:19;;;;;;;1.05;1.02;;;;;;;18.06;43.19;100827.72;5030660;28;20128;-67
2022/03/19 08:30:46;;;;;;;12.57;2.40;;;;;;;18.17;42.85;100837.56;5025703;28;20148;-70
2022/03/19 08:33:13;;;;;;;3.92;1.60;;;;;;;18.18;42.31;100836.41;5020521;28;20080;-67
2022/03/19 08:35:40;;;;;;;1.35;1.02;;;;;;;18.41;42.57;100839.19;5023374;28;20140;-67
2022/03/19 08:40:53;;;;;;;11.77;3.08;;;;;;;18.70;41.69;100847.94;5024440;28;20435;-67
2022/03/19 08:43:21;;;;;;;4.80;2.20;;;;;;;19.07;41.25;100848.53;5029106;28;20128;-67
2022/03/19 08:45:48;;;;;;;3.20;1.80;;;;;;;19.20;40.76;100851.56;5028938;28;20060;-66
2022/03/19 08:48:17;;;;;;;5.22;2.28;;;;;;;19.18;40.30;100830.06;5028734;28;20140;-67
2022/03/19 08:50:45;;;;;;;8.48;3.22;;;;;;;19.33;39.93;100839.25;5028034;28;20053;-66
2022/03/19 08:53:16;;;;;;;9.95;3.20;;;;;;;19.56;39.65;100851.25;5033278;28;20091;-66
2022/03/19 08:55:45;;;;;;;7.68;3.00;;;;;;;19.86;39.49;100850.25;5028831;28;20088;-66
2022/03/19 08:58:13;;;;;;;8.93;3.53;;;;;;;19.85;38.83;100853.38;5027407;28;20132;-67
2022/03/19 09:00:41;;;;;;;6.55;2.55;;;;;;;20.05;38.68;100869.69;5031515;28;20049;-67
2022/03/19 09:03:08;;;;;;;8.23;3.45;;;;;;;20.08;38.13;100857.69;5038364;28;20483;-67
2022/03/19 09:05:35;;;;;;;4.57;2.53;;;;;;;20.16;37.88;100861.66;5035806;28;20056;-67
2022/03/19 09:08:02;;;;;;;3.60;2.42;;;;;;;19.91;37.66;100846.38;5026680;28;20476;-67
2022/03/19 09:10:30;;;;;;;9.52;2.35;;;;;;;19.86;37.66;100855.03;5032285;28;20053;-68
2022/03/19 09:12:57;;;;;;;10.27;2.90;;;;;;;19.99;37.63;100854.03;5044081;28;20099;-66
2022/03/19 09:15:24;;;;;;;7.43;2.95;;;;;;;20.44;37.48;100850.69;5033021;28;20136;-66
2022/03/19 09:17:51;;;;;;;2.42;1.85;;;;;;;20.62;37.12;100856.38;5027000;28;20092;-67
2022/03/19 09:20:19;;;;;;;9.35;3.97;;;;;;;20.73;36.78;100854.78;5025485;28;20103;-67
2022/03/19 09:22:46;;;;;;;9.23;3.70;;;;;;;20.50;36.58;100826.69;5022633;28;20045;-67
2022/03/19 09:25:13;;;;;;;5.20;2.75;;;;;;;20.79;36.30;100867.63;5029753;28;20467;-66
2022/03/19 09:27:42;;;;;;;2.90;1.47;;;;;;;20.42;36.30;100830.38;5026831;28;20421;-67
2022/03/19 09:30:09;;;;;;;3.97;1.73;;;;;;;20.74;36.83;100859.28;5027567;28;20378;-66
2022/03/19 09:32:36;;;;;;;6.32;2.67;;;;;;;20.68;36.22;100837.94;5025008;28;20127;-67
2022/03/19 09:35:04;;;;;;;7.65;3.25;;;;;;;20.85;36.24;100832.16;5027138;28;20466;-67
2022/03/19 09:37:31;;;;;;;3.33;1.70;;;;;;;20.94;35.94;100866.19;5028181;28;20049;-67
2022/03/19 09:39:58;;;;;;;2.60;1.75;;;;;;;20.67;35.83;100856.16;5027548;28;20459;-66
2022/03/19 09:42:27;;;;;;;3.95;2.38;;;;;;;20.74;35.84;100845.09;5029718;28;20164;-66
2022/03/19 09:44:55;;;;;;;2.83;1.93;;;;;;;20.96;35.81;100856.16;5028364;28;20111;-66
2022/03/19 09:47:21;;;;;;;8.93;2.88;;;;;;;21.04;35.68;100849.59;5027523;28;20128;-67
2022/03/19 09:49:54;;;;;;;8.32;3.25;;;;;;;20.99;35.87;100844.13;5029756;28;20081;-66
2022/03/19 09:52:27;;;;;;;9.57;3.88;;;;;;;20.84;35.30;100802.13;5030087;28;20077;-67
2022/03/19 09:54:59;;;;;;;10.30;2.70;;;;;;;21.61;35.19;100818.94;5025811;28;20136;-67
2022/03/19 09:57:26;;;;;;;6.20;2.15;;;;;;;22.09;34.17;100823.13;5029773;28;20088;-67
2022/03/19 09:59:52;;;;;;;6.13;2.47;;;;;;;22.19;33.70;100836.91;5034863;28;20140;-67
2022/03/19 10:02:19;;;;;;;4.47;2.00;;;;;;;22.32;33.47;100840.59;5029092;28;20067;-67
2022/03/19 10:04:51;;;;;;;5.75;2.47;;;;;;;22.27;33.69;100813.22;5030845;28;20053;-66
2022/03/19 10:10:11;;;;;;;4.57;1.60;;;;;;;22.84;33.59;100828.53;5030767;28;20405;-67
2022/03/19 10:12:39;;;;;;;8.20;3.10;;;;;;;22.79;33.15;100826.72;5032114;28;20437;-66
2022/03/19 10:15:09;;;;;;;6.22;2.25;;;;;;;22.92;32.34;100830.41;5026227;28;20069;-67
2022/03/19 10:17:36;;;;;;;;;;;;;;;23.20;32.72;100836.22;5029457;28;20080;-66
2022/03/19 10:20:06;;;;;;;8.07;1.60;;;;;;;23.18;31.97;100844.31;5035396;28;19931;-66
2022/03/19 10:22:34;;;;;;;4.45;2.40;;;;;;;22.88;32.13;100824.59;5030820;28;20080;-67
2022/03/19 10:25:07;;;;;;;1.70;1.60;;;;;;;22.88;32.30;100841.69;5032321;28;20096;-67
2022/03/19 10:27:36;;;;;;;4.25;2.25;;;;;;;22.88;32.06;100824.59;5028251;28;20049;-66
2022/03/19 10:30:09;;;;;;;6.55;2.72;;;;;;;23.02;31.89;100831.97;5029287;28;20099;-66
2022/03/19 10:32:39;;;;;;;3.60;2.33;;;;;;;23.33;31.75;100828.47;5030261;28;20588;-66
2022/03/19 10:35:28;;;;;;;5.15;2.50;;;;;;;23.33;31.85;100842.72;5032272;28;20433;-67
2022/03/19 10:37:56;;;;;;;2.28;1.60;;;;;;;23.35;32.00;100821.22;5024834;28;20390;-67
2022/03/19 10:40:37;;;;;;;7.07;2.97;;;;;;;23.71;31.76;100833.69;5027175;28;20328;-66
2022/03/19 10:43:06;;;;;;;4.97;2.40;;;;;;;23.96;31.31;100800.16;5022694;28;20095;-67
2022/03/19 10:45:40;;;;;;;6.20;2.20;;;;;;;24.16;31.72;100814.56;5026083;28;20049;-67
2022/03/19 10:48:07;;;;;;;5.30;2.72;;;;;;;24.40;30.77;100847.81;5025706;28;20408;-67
2022/03/19 10:50:38;;;;;;;8.48;3.05;;;;;;;24.62;30.96;100815.81;5027316;28;20483;-67
2022/03/19 10:53:06;;;;;;;3.63;2.30;;;;;;;24.87;29.98;100821.28;5031087;28;20148;-67
2022/03/19 10:55:33;;;;;;;8.30;3.20;;;;;;;24.63;29.80;100822.34;5029123;28;20152;-66
2022/03/19 10:58:01;;;;;;;7.47;2.78;;;;;;;24.88;30.12;100811.50;5028372;28;20135;-66
2022/03/19 11:00:28;;;;;;;5.57;2.40;;;;;;;25.03;30.11;100774.34;5029882;28;20049;-66
2022/03/19 11:03:03;;;;;;;4.10;2.40;;;;;;;24.97;29.59;100797.84;5012104;28;20042;-67
2022/03/19 11:05:34;;;;;;;8.05;3.28;;;;;;;24.97;29.49;100803.56;5027347;28;20567;-67
2022/03/19 11:08:03;;;;;;;8.52;3.25;;;;;;;25.22;29.53;100809.88;5029124;28;20085;-67
2022/03/19 11:10:30;;;;;;;8.88;2.88;;;;;;;25.34;29.03;100788.91;5030990;28;20095;-68
2022/03/19 11:12:59;;;;;;;7.78;3.00;;;;;;;25.83;29.03;100806.28;5023859;28;20041;-67
2022/03/19 11:15:33;;;;;;;7.10;2.83;;;;;;;25.99;28.46;100778.41;5028731;28;20111;-68
2022/03/19 11:18:05;;;;;;;4.20;2.60;;;;;;;26.35;27.99;100804.81;5031073;28;20053;-66
2022/03/19 11:20:32;;;;;;;6.22;2.00;;;;;;;26.14;27.26;100788.06;5032825;28;20140;-67
2022/03/19 11:23:02;;;;;;;3.92;2.65;;;;;;;26.27;27.20;100782.19;5031222;28;20088;-67
2022/03/19 11:25:47;;;;;;;4.03;2.15;;;;;;;27.04;27.26;100803.91;5032299;28;20096;-67
2022/03/19 11:28:14;;;;;;;4.80;2.67;;;;;;;26.90;26.56;100775.84;5022618;28;20127;-67
2022/03/19 11:30:46;;;;;;;4.88;2.58;;;;;;;27.67;26.55;100785.94;5030459;28;20140;-67
2022/03/19 11:33:18;;;;;;;3.97;2.70;;;;;;;28.00;25.99;100796.59;5020056;28;20526;-66
2022/03/19 11:36:05;;;;;;;2.65;1.80;;;;;;;28.25;25.93;100778.78;5028455;28;20051;-67
2022/03/19 11:38:41;;;;;;;3.92;2.65;;;;;;;28.30;25.12;100793.56;5024955;28;20080;-67
2022/03/19 11:41:46;;;;;;;5.43;2.70;;;;;;;28.66;25.42;100788.19;5026433;28;20091;-67
2022/03/19 11:44:24;;;;;;;6.32;2.78;;;;;;;29.12;25.09;100779.06;5026829;28;20081;-67
2022/03/19 11:47:00;;;;;;;2.72;2.28;;;;;;;29.02;24.50;100788.44;5029188;28;20119;-66